sensor_id;sensor_type;location;lat;lon;timestamp;temperature;humidity
10233;DHT22;5161;48.174;11.756;2023-02-15T00:01:57;1.80;96.80
10233;DHT22;5161;48.174;11.756;2023-02-15T00:04:24;1.80;96.80
10233;DHT22;5161;48.174;11.756;2023-02-15T00:07:10;1.80;96.80
10233;DHT22;5161;48.174;11.756;2023-02-15T00:09:36;1.70;96.70
10233;DHT22;5161;48.174;11.756;2023-02-15T00:12:02;1.80;96.80
10233;DHT22;5161;48.174;11.756;2023-02-15T00:14:32;1.80;96.80
10233;DHT22;5161;48.174;11.756;2023-02-15T00:16:58;1.80;96.60
10233;DHT22;5161;48.174;11.756;2023-02-15T00:19:27;1.70;96.60
10233;DHT22;5161;48.174;11.756;2023-02-15T00:21:53;1.70;96.70
10233;DHT22;5161;48.174;11.756;2023-02-15T00:24:21;1.60;96.60
10233;DHT22;5161;48.174;11.756;2023-02-15T00:26:47;1.70;96.80
10233;DHT22;5161;48.174;11.756;2023-02-15T00:29:18;1.70;96.80
10233;DHT22;5161;48.174;11.756;2023-02-15T00:31:46;1.70;96.80
10233;DHT22;5161;48.174;11.756;2023-02-15T00:34:24;1.70;96.70
10233;DHT22;5161;48.174;11.756;2023-02-15T00:36:50;1.70;96.90
10233;DHT22;5161;48.174;11.756;2023-02-15T00:39:16;1.70;96.80
10233;DHT22;5161;48.174;11.756;2023-02-15T00:41:42;1.60;96.70
10233;DHT22;5161;48.174;11.756;2023-02-15T00:44:09;1.50;96.40
10233;DHT22;5161;48.174;11.756;2023-02-15T00:46:35;1.50;96.90
10233;DHT22;5161;48.174;11.756;2023-02-15T00:49:02;1.50;97.00
10233;DHT22;5161;48.174;11.756;2023-02-15T00:51:28;1.60;97.00
10233;DHT22;5161;48.174;11.756;2023-02-15T00:53:53;1.60;96.90
10233;DHT22;5161;48.174;11.756;2023-02-15T00:56:19;1.60;96.80
10233;DHT22;5161;48.174;11.756;2023-02-15T00:58:45;1.60;96.90
10233;DHT22;5161;48.174;11.756;2023-02-15T01:01:13;1.60;96.80
10233;DHT22;5161;48.174;11.756;2023-02-15T01:03:40;1.60;96.80
10233;DHT22;5161;48.174;11.756;2023-02-15T01:06:07;1.60;96.80
10233;DHT22;5161;48.174;11.756;2023-02-15T01:08:34;1.60;96.80
10233;DHT22;5161;48.174;11.756;2023-02-15T01:11:06;1.60;96.90
10233;DHT22;5161;48.174;11.756;2023-02-15T01:13:32;1.60;96.80
10233;DHT22;5161;48.174;11.756;2023-02-15T01:15:58;1.60;96.80
10233;DHT22;5161;48.174;11.756;2023-02-15T01:18:24;1.60;96.80
10233;DHT22;5161;48.174;11.756;2023-02-15T01:20:49;1.50;96.80
10233;DHT22;5161;48.174;11.756;2023-02-15T01:23:15;1.60;96.90
10233;DHT22;5161;48.174;11.756;2023-02-15T01:25:41;1.60;96.90
10233;DHT22;5161;48.174;11.756;2023-02-15T01:28:07;1.60;96.80
10233;DHT22;5161;48.174;11.756;2023-02-15T01:30:33;1.60;97.10
10233;DHT22;5161;48.174;11.756;2023-02-15T01:32:59;1.60;96.90
10233;DHT22;5161;48.174;11.756;2023-02-15T01:35:26;1.50;96.80
10233;DHT22;5161;48.174;11.756;2023-02-15T01:37:52;1.50;96.90
10233;DHT22;5161;48.174;11.756;2023-02-15T01:40:18;1.60;97.00
10233;DHT22;5161;48.174;11.756;2023-02-15T01:42:44;1.60;97.10
10233;DHT22;5161;48.174;11.756;2023-02-15T01:45:26;1.60;97.00
10233;DHT22;5161;48.174;11.756;2023-02-15T01:47:54;1.60;97.00
10233;DHT22;5161;48.174;11.756;2023-02-15T01:50:29;1.50;96.90
10233;DHT22;5161;48.174;11.756;2023-02-15T01:55:32;1.50;96.90
10233;DHT22;5161;48.174;11.756;2023-02-15T01:57:59;1.50;96.90
10233;DHT22;5161;48.174;11.756;2023-02-15T02:00:25;1.40;96.90
10233;DHT22;5161;48.174;11.756;2023-02-15T02:02:53;1.50;97.00
10233;DHT22;5161;48.174;11.756;2023-02-15T02:05:20;1.50;96.90
10233;DHT22;5161;48.174;11.756;2023-02-15T02:07:46;1.40;96.80
10233;DHT22;5161;48.174;11.756;2023-02-15T02:10:16;1.40;96.80
10233;DHT22;5161;48.174;11.756;2023-02-15T02:12:43;1.40;96.80
10233;DHT22;5161;48.174;11.756;2023-02-15T02:15:10;1.40;97.00
10233;DHT22;5161;48.174;11.756;2023-02-15T02:18:22;1.30;96.80
10233;DHT22;5161;48.174;11.756;2023-02-15T02:21:04;1.40;96.90
10233;DHT22;5161;48.174;11.756;2023-02-15T02:31:48;1.40;96.80
10233;DHT22;5161;48.174;11.756;2023-02-15T02:34:30;1.40;96.80
10233;DHT22;5161;48.174;11.756;2023-02-15T02:37:03;1.40;96.80
10233;DHT22;5161;48.174;11.756;2023-02-15T02:39:36;1.40;96.90
10233;DHT22;5161;48.174;11.756;2023-02-15T02:42:28;1.50;96.90
10233;DHT22;5161;48.174;11.756;2023-02-15T02:45:31;1.50;96.70
10233;DHT22;5161;48.174;11.756;2023-02-15T02:47:56;1.50;96.60
10233;DHT22;5161;48.174;11.756;2023-02-15T02:50:26;1.40;96.50
10233;DHT22;5161;48.174;11.756;2023-02-15T02:52:55;1.40;96.50
10233;DHT22;5161;48.174;11.756;2023-02-15T03:00:54;1.40;96.50
10233;DHT22;5161;48.174;11.756;2023-02-15T03:03:30;1.40;96.50
10233;DHT22;5161;48.174;11.756;2023-02-15T03:06:00;1.40;96.50
10233;DHT22;5161;48.174;11.756;2023-02-15T03:08:33;1.50;96.50
10233;DHT22;5161;48.174;11.756;2023-02-15T03:11:04;1.50;96.40
10233;DHT22;5161;48.174;11.756;2023-02-15T03:13:30;1.50;96.40
10233;DHT22;5161;48.174;11.756;2023-02-15T03:15:58;1.40;96.20
10233;DHT22;5161;48.174;11.756;2023-02-15T03:21:43;1.40;96.30
10233;DHT22;5161;48.174;11.756;2023-02-15T03:24:18;1.40;96.30
10233;DHT22;5161;48.174;11.756;2023-02-15T03:26:46;1.40;96.30
10233;DHT22;5161;48.174;11.756;2023-02-15T03:29:13;1.40;96.20
10233;DHT22;5161;48.174;11.756;2023-02-15T03:31:44;1.40;96.10
10233;DHT22;5161;48.174;11.756;2023-02-15T03:34:13;1.40;96.00
10233;DHT22;5161;48.174;11.756;2023-02-15T03:39:26;1.30;96.10
10233;DHT22;5161;48.174;11.756;2023-02-15T03:42:09;1.40;96.20
10233;DHT22;5161;48.174;11.756;2023-02-15T03:45:03;1.40;96.10
10233;DHT22;5161;48.174;11.756;2023-02-15T03:47:37;1.30;95.90
10233;DHT22;5161;48.174;11.756;2023-02-15T03:50:18;1.30;96.00
10233;DHT22;5161;48.174;11.756;2023-02-15T03:53:07;1.30;95.90
10233;DHT22;5161;48.174;11.756;2023-02-15T03:55:35;1.30;95.80
10233;DHT22;5161;48.174;11.756;2023-02-15T03:58:01;1.30;95.80
10233;DHT22;5161;48.174;11.756;2023-02-15T04:00:58;1.30;95.90
10233;DHT22;5161;48.174;11.756;2023-02-15T04:03:48;1.20;95.80
10233;DHT22;5161;48.174;11.756;2023-02-15T04:06:15;1.20;95.80
10233;DHT22;5161;48.174;11.756;2023-02-15T04:08:40;1.30;95.80
10233;DHT22;5161;48.174;11.756;2023-02-15T04:11:25;1.30;95.80
10233;DHT22;5161;48.174;11.756;2023-02-15T04:13:50;1.20;95.70
10233;DHT22;5161;48.174;11.756;2023-02-15T04:16:25;1.20;95.70
10233;DHT22;5161;48.174;11.756;2023-02-15T04:18:51;1.20;95.70
10233;DHT22;5161;48.174;11.756;2023-02-15T04:21:35;1.20;95.70
10233;DHT22;5161;48.174;11.756;2023-02-15T04:24:19;1.20;95.80
10233;DHT22;5161;48.174;11.756;2023-02-15T04:27:04;1.20;95.80
10233;DHT22;5161;48.174;11.756;2023-02-15T04:29:31;1.20;95.70
10233;DHT22;5161;48.174;11.756;2023-02-15T04:31:58;1.20;95.80
10233;DHT22;5161;48.174;11.756;2023-02-15T04:34:24;1.20;95.80
10233;DHT22;5161;48.174;11.756;2023-02-15T04:36:50;1.20;96.00
10233;DHT22;5161;48.174;11.756;2023-02-15T04:39:16;1.30;95.80
10233;DHT22;5161;48.174;11.756;2023-02-15T04:41:43;1.30;95.80
10233;DHT22;5161;48.174;11.756;2023-02-15T04:44:09;1.20;95.80
10233;DHT22;5161;48.174;11.756;2023-02-15T04:46:35;1.20;95.80
10233;DHT22;5161;48.174;11.756;2023-02-15T04:49:01;1.20;95.80
10233;DHT22;5161;48.174;11.756;2023-02-15T04:51:28;1.20;95.80
10233;DHT22;5161;48.174;11.756;2023-02-15T04:53:53;1.20;95.80
10233;DHT22;5161;48.174;11.756;2023-02-15T04:56:20;1.20;95.80
10233;DHT22;5161;48.174;11.756;2023-02-15T04:58:45;1.20;95.90
10233;DHT22;5161;48.174;11.756;2023-02-15T05:01:11;1.20;95.90
10233;DHT22;5161;48.174;11.756;2023-02-15T05:03:37;1.20;95.80
10233;DHT22;5161;48.174;11.756;2023-02-15T05:06:03;1.10;95.80
10233;DHT22;5161;48.174;11.756;2023-02-15T05:08:28;1.20;96.00
10233;DHT22;5161;48.174;11.756;2023-02-15T05:10:54;1.10;95.70
10233;DHT22;5161;48.174;11.756;2023-02-15T05:13:20;1.10;95.80
10233;DHT22;5161;48.174;11.756;2023-02-15T05:15:50;1.00;95.70
10233;DHT22;5161;48.174;11.756;2023-02-15T05:18:16;1.00;96.00
10233;DHT22;5161;48.174;11.756;2023-02-15T05:20:42;1.00;95.80
10233;DHT22;5161;48.174;11.756;2023-02-15T05:23:08;1.00;95.90
10233;DHT22;5161;48.174;11.756;2023-02-15T05:25:33;1.00;95.80
10233;DHT22;5161;48.174;11.756;2023-02-15T05:28:17;1.00;95.80
10233;DHT22;5161;48.174;11.756;2023-02-15T05:31:12;1.00;95.80
10233;DHT22;5161;48.174;11.756;2023-02-15T05:33:38;1.00;95.90
10233;DHT22;5161;48.174;11.756;2023-02-15T05:36:04;1.00;95.80
10233;DHT22;5161;48.174;11.756;2023-02-15T05:38:31;1.00;95.80
10233;DHT22;5161;48.174;11.756;2023-02-15T05:40:56;1.10;95.70
10233;DHT22;5161;48.174;11.756;2023-02-15T05:43:22;1.10;95.70
10233;DHT22;5161;48.174;11.756;2023-02-15T05:45:50;1.10;95.70
10233;DHT22;5161;48.174;11.756;2023-02-15T05:48:17;1.00;95.50
10233;DHT22;5161;48.174;11.756;2023-02-15T05:50:42;1.00;95.60
10233;DHT22;5161;48.174;11.756;2023-02-15T05:53:08;1.00;95.70
10233;DHT22;5161;48.174;11.756;2023-02-15T05:55:36;1.00;95.70
10233;DHT22;5161;48.174;11.756;2023-02-15T05:58:02;1.00;95.70
10233;DHT22;5161;48.174;11.756;2023-02-15T06:00:28;0.90;95.70
10233;DHT22;5161;48.174;11.756;2023-02-15T06:02:53;1.00;95.80
10233;DHT22;5161;48.174;11.756;2023-02-15T06:05:19;1.00;95.50
10233;DHT22;5161;48.174;11.756;2023-02-15T06:07:44;1.00;95.60
10233;DHT22;5161;48.174;11.756;2023-02-15T06:10:10;1.00;95.50
10233;DHT22;5161;48.174;11.756;2023-02-15T06:12:39;0.90;95.40
10233;DHT22;5161;48.174;11.756;2023-02-15T06:15:05;0.90;95.50
10233;DHT22;5161;48.174;11.756;2023-02-15T06:17:31;0.90;95.50
10233;DHT22;5161;48.174;11.756;2023-02-15T06:19:57;0.90;95.50
10233;DHT22;5161;48.174;11.756;2023-02-15T06:22:22;0.90;95.50
10233;DHT22;5161;48.174;11.756;2023-02-15T06:24:48;0.90;95.50
10233;DHT22;5161;48.174;11.756;2023-02-15T06:27:13;0.90;95.50
10233;DHT22;5161;48.174;11.756;2023-02-15T06:29:39;0.90;95.50
10233;DHT22;5161;48.174;11.756;2023-02-15T06:32:05;0.90;95.50
10233;DHT22;5161;48.174;11.756;2023-02-15T06:34:31;0.90;95.50
10233;DHT22;5161;48.174;11.756;2023-02-15T06:36:57;0.90;95.50
10233;DHT22;5161;48.174;11.756;2023-02-15T06:39:22;0.90;95.10
10233;DHT22;5161;48.174;11.756;2023-02-15T06:42:01;0.90;95.20
10233;DHT22;5161;48.174;11.756;2023-02-15T06:44:27;0.80;95.40
10233;DHT22;5161;48.174;11.756;2023-02-15T06:46:52;0.80;95.40
10233;DHT22;5161;48.174;11.756;2023-02-15T06:49:18;0.90;95.40
10233;DHT22;5161;48.174;11.756;2023-02-15T06:51:43;0.90;95.50
10233;DHT22;5161;48.174;11.756;2023-02-15T06:54:09;0.90;95.30
10233;DHT22;5161;48.174;11.756;2023-02-15T06:56:35;0.90;95.40
10233;DHT22;5161;48.174;11.756;2023-02-15T06:59:01;0.90;95.50
10233;DHT22;5161;48.174;11.756;2023-02-15T07:01:26;0.90;95.50
10233;DHT22;5161;48.174;11.756;2023-02-15T07:03:52;0.90;95.50
10233;DHT22;5161;48.174;11.756;2023-02-15T07:06:17;0.90;95.50
10233;DHT22;5161;48.174;11.756;2023-02-15T07:08:43;0.90;95.50
10233;DHT22;5161;48.174;11.756;2023-02-15T07:11:09;0.90;95.50
10233;DHT22;5161;48.174;11.756;2023-02-15T07:13:52;0.90;95.50
10233;DHT22;5161;48.174;11.756;2023-02-15T07:16:19;0.90;95.40
10233;DHT22;5161;48.174;11.756;2023-02-15T07:18:44;0.90;95.40
10233;DHT22;5161;48.174;11.756;2023-02-15T07:21:10;0.80;95.40
10233;DHT22;5161;48.174;11.756;2023-02-15T07:23:37;0.80;95.50
10233;DHT22;5161;48.174;11.756;2023-02-15T07:26:03;0.90;95.50
10233;DHT22;5161;48.174;11.756;2023-02-15T07:28:30;0.90;95.50
10233;DHT22;5161;48.174;11.756;2023-02-15T07:30:56;0.90;95.60
10233;DHT22;5161;48.174;11.756;2023-02-15T07:33:23;0.90;95.60
10233;DHT22;5161;48.174;11.756;2023-02-15T07:35:50;1.00;95.60
10233;DHT22;5161;48.174;11.756;2023-02-15T07:38:17;1.00;95.50
10233;DHT22;5161;48.174;11.756;2023-02-15T07:40:43;0.90;95.50
10233;DHT22;5161;48.174;11.756;2023-02-15T07:43:10;1.00;95.50
10233;DHT22;5161;48.174;11.756;2023-02-15T07:45:36;1.00;95.50
10233;DHT22;5161;48.174;11.756;2023-02-15T07:48:03;1.00;95.50
10233;DHT22;5161;48.174;11.756;2023-02-15T07:50:29;1.00;95.50
10233;DHT22;5161;48.174;11.756;2023-02-15T07:52:54;1.00;95.60
10233;DHT22;5161;48.174;11.756;2023-02-15T07:55:20;1.00;95.60
10233;DHT22;5161;48.174;11.756;2023-02-15T07:57:48;1.10;95.50
10233;DHT22;5161;48.174;11.756;2023-02-15T08:00:15;1.10;95.60
10233;DHT22;5161;48.174;11.756;2023-02-15T08:02:42;1.10;95.70
10233;DHT22;5161;48.174;11.756;2023-02-15T08:05:08;1.10;95.40
10233;DHT22;5161;48.174;11.756;2023-02-15T08:07:33;1.00;95.30
10233;DHT22;5161;48.174;11.756;2023-02-15T08:09:59;1.00;95.40
10233;DHT22;5161;48.174;11.756;2023-02-15T08:12:28;1.00;95.20
10233;DHT22;5161;48.174;11.756;2023-02-15T08:14:54;1.10;95.50
10233;DHT22;5161;48.174;11.756;2023-02-15T08:17:19;1.10;95.30
10233;DHT22;5161;48.174;11.756;2023-02-15T08:19:45;1.00;95.20
10233;DHT22;5161;48.174;11.756;2023-02-15T08:22:13;1.10;95.40
10233;DHT22;5161;48.174;11.756;2023-02-15T08:24:40;1.10;95.40
10233;DHT22;5161;48.174;11.756;2023-02-15T08:27:08;1.10;95.50
10233;DHT22;5161;48.174;11.756;2023-02-15T08:29:35;1.10;95.60
10233;DHT22;5161;48.174;11.756;2023-02-15T08:32:07;1.20;95.60
10233;DHT22;5161;48.174;11.756;2023-02-15T08:34:36;1.20;95.50
10233;DHT22;5161;48.174;11.756;2023-02-15T08:37:03;1.10;95.30
10233;DHT22;5161;48.174;11.756;2023-02-15T08:39:29;1.10;95.40
10233;DHT22;5161;48.174;11.756;2023-02-15T08:41:55;1.10;95.40
10233;DHT22;5161;48.174;11.756;2023-02-15T08:44:21;1.20;95.40
10233;DHT22;5161;48.174;11.756;2023-02-15T08:46:48;1.20;95.40
10233;DHT22;5161;48.174;11.756;2023-02-15T08:49:17;1.20;95.50
10233;DHT22;5161;48.174;11.756;2023-02-15T08:51:44;1.20;95.60
10233;DHT22;5161;48.174;11.756;2023-02-15T08:54:13;1.30;95.50
10233;DHT22;5161;48.174;11.756;2023-02-15T08:56:41;1.30;95.60
10233;DHT22;5161;48.174;11.756;2023-02-15T08:59:16;1.30;95.60
10233;DHT22;5161;48.174;11.756;2023-02-15T09:01:42;1.30;95.70
10233;DHT22;5161;48.174;11.756;2023-02-15T09:04:08;1.30;95.60
10233;DHT22;5161;48.174;11.756;2023-02-15T09:06:35;1.40;95.80
10233;DHT22;5161;48.174;11.756;2023-02-15T09:09:01;1.40;95.70
10233;DHT22;5161;48.174;11.756;2023-02-15T09:11:28;1.40;95.80
10233;DHT22;5161;48.174;11.756;2023-02-15T09:13:56;1.50;95.90
10233;DHT22;5161;48.174;11.756;2023-02-15T09:16:24;1.50;95.80
10233;DHT22;5161;48.174;11.756;2023-02-15T09:18:51;1.50;95.80
10233;DHT22;5161;48.174;11.756;2023-02-15T09:21:19;1.60;95.70
10233;DHT22;5161;48.174;11.756;2023-02-15T09:23:48;1.60;95.80
10233;DHT22;5161;48.174;11.756;2023-02-15T09:26:20;1.60;95.80
10233;DHT22;5161;48.174;11.756;2023-02-15T09:28:46;1.60;96.10
10233;DHT22;5161;48.174;11.756;2023-02-15T09:31:21;1.70;95.90
10233;DHT22;5161;48.174;11.756;2023-02-15T09:33:48;1.70;95.90
10233;DHT22;5161;48.174;11.756;2023-02-15T09:36:17;1.70;95.90
10233;DHT22;5161;48.174;11.756;2023-02-15T09:38:44;1.70;95.90
10233;DHT22;5161;48.174;11.756;2023-02-15T09:49:21;2.00;96.30
10233;DHT22;5161;48.174;11.756;2023-02-15T09:54:39;2.00;96.20
10233;DHT22;5161;48.174;11.756;2023-02-15T09:57:23;2.00;96.20
10233;DHT22;5161;48.174;11.756;2023-02-15T10:02:44;2.20;96.10
10233;DHT22;5161;48.174;11.756;2023-02-15T10:05:33;2.20;96.10
10233;DHT22;5161;48.174;11.756;2023-02-15T10:08:27;2.20;96.20
10233;DHT22;5161;48.174;11.756;2023-02-15T10:11:17;2.20;96.40
10233;DHT22;5161;48.174;11.756;2023-02-15T10:14:24;2.40;96.70
10233;DHT22;5161;48.174;11.756;2023-02-15T10:17:13;2.50;96.50
10233;DHT22;5161;48.174;11.756;2023-02-15T10:23:07;2.50;96.50
10233;DHT22;5161;48.174;11.756;2023-02-15T10:25:38;2.50;96.50
10233;DHT22;5161;48.174;11.756;2023-02-15T10:28:17;2.60;96.50
10233;DHT22;5161;48.174;11.756;2023-02-15T10:30:51;2.70;96.60
10233;DHT22;5161;48.174;11.756;2023-02-15T10:33:40;2.80;96.80
10233;DHT22;5161;48.174;11.756;2023-02-15T10:36:11;2.90;96.80
10233;DHT22;5161;48.174;11.756;2023-02-15T10:39:02;3.00;96.70
10233;DHT22;5161;48.174;11.756;2023-02-15T10:41:51;3.00;96.80
10233;DHT22;5161;48.174;11.756;2023-02-15T10:47:48;3.10;96.90
10233;DHT22;5161;48.174;11.756;2023-02-15T10:50:20;3.20;96.90
10233;DHT22;5161;48.174;11.756;2023-02-15T10:53:03;3.30;97.10
10233;DHT22;5161;48.174;11.756;2023-02-15T11:01:34;3.60;97.20
10233;DHT22;5161;48.174;11.756;2023-02-15T11:07:02;4.00;97.50
10233;DHT22;5161;48.174;11.756;2023-02-15T11:09:38;4.20;97.50
10233;DHT22;5161;48.174;11.756;2023-02-15T11:12:11;4.40;97.40
10233;DHT22;5161;48.174;11.756;2023-02-15T11:14:49;4.70;97.90
10233;DHT22;5161;48.174;11.756;2023-02-15T11:17:28;4.90;97.70
10233;DHT22;5161;48.174;11.756;2023-02-15T11:22:47;5.40;97.30
10233;DHT22;5161;48.174;11.756;2023-02-15T11:25:40;5.70;97.40
10233;DHT22;5161;48.174;11.756;2023-02-15T11:28:17;5.80;97.70
10233;DHT22;5161;48.174;11.756;2023-02-15T11:30:48;6.10;97.30
10233;DHT22;5161;48.174;11.756;2023-02-15T11:33:21;6.30;97.20
10233;DHT22;5161;48.174;11.756;2023-02-15T11:35:52;6.60;97.20
10233;DHT22;5161;48.174;11.756;2023-02-15T11:38:22;6.90;97.40
10233;DHT22;5161;48.174;11.756;2023-02-15T11:41:10;7.20;96.90
10233;DHT22;5161;48.174;11.756;2023-02-15T11:46:20;7.80;96.50
10233;DHT22;5161;48.174;11.756;2023-02-15T11:48:47;8.10;96.10
10233;DHT22;5161;48.174;11.756;2023-02-15T11:51:16;8.20;96.00
10233;DHT22;5161;48.174;11.756;2023-02-15T11:53:43;8.50;95.90
10233;DHT22;5161;48.174;11.756;2023-02-15T11:56:17;8.70;95.60
10233;DHT22;5161;48.174;11.756;2023-02-15T11:58:47;8.90;95.50
10233;DHT22;5161;48.174;11.756;2023-02-15T12:01:33;9.10;95.20
10233;DHT22;5161;48.174;11.756;2023-02-15T12:04:24;9.30;94.90
10233;DHT22;5161;48.174;11.756;2023-02-15T12:07:11;9.50;94.70
10233;DHT22;5161;48.174;11.756;2023-02-15T12:10:03;9.60;94.40
10233;DHT22;5161;48.174;11.756;2023-02-15T12:12:37;9.70;93.90
10233;DHT22;5161;48.174;11.756;2023-02-15T12:15:08;9.70;93.60
10233;DHT22;5161;48.174;11.756;2023-02-15T12:17:34;9.90;93.70
10233;DHT22;5161;48.174;11.756;2023-02-15T12:20:29;10.00;92.80
10233;DHT22;5161;48.174;11.756;2023-02-15T12:23:13;10.10;92.60
10233;DHT22;5161;48.174;11.756;2023-02-15T12:25:53;10.20;92.40
10233;DHT22;5161;48.174;11.756;2023-02-15T12:28:35;10.30;92.40
10233;DHT22;5161;48.174;11.756;2023-02-15T12:31:10;10.40;92.30
10233;DHT22;5161;48.174;11.756;2023-02-15T12:33:52;10.60;92.10
10233;DHT22;5161;48.174;11.756;2023-02-15T12:36:21;10.70;92.20
10233;DHT22;5161;48.174;11.756;2023-02-15T12:41:30;10.90;91.20
10233;DHT22;5161;48.174;11.756;2023-02-15T12:44:23;11.00;91.70
10233;DHT22;5161;48.174;11.756;2023-02-15T12:47:18;11.00;91.30
10233;DHT22;5161;48.174;11.756;2023-02-15T12:50:03;11.10;91.30
10233;DHT22;5161;48.174;11.756;2023-02-15T12:52:29;11.20;91.20
10233;DHT22;5161;48.174;11.756;2023-02-15T12:55:20;11.20;91.00
10233;DHT22;5161;48.174;11.756;2023-02-15T12:57:46;11.30;91.10
10233;DHT22;5161;48.174;11.756;2023-02-15T13:02:49;11.30;91.10
10233;DHT22;5161;48.174;11.756;2023-02-15T13:05:38;11.30;90.90
10233;DHT22;5161;48.174;11.756;2023-02-15T13:08:17;11.40;91.10
10233;DHT22;5161;48.174;11.756;2023-02-15T13:10:56;11.50;91.10
10233;DHT22;5161;48.174;11.756;2023-02-15T13:13:25;11.60;90.90
10233;DHT22;5161;48.174;11.756;2023-02-15T13:15:58;11.60;90.80
10233;DHT22;5161;48.174;11.756;2023-02-15T13:18:33;11.60;90.80
10233;DHT22;5161;48.174;11.756;2023-02-15T13:21:18;11.60;90.60
10233;DHT22;5161;48.174;11.756;2023-02-15T13:23:57;11.60;90.60
10233;DHT22;5161;48.174;11.756;2023-02-15T13:26:28;11.50;90.60
10233;DHT22;5161;48.174;11.756;2023-02-15T13:29:03;11.50;90.80
10233;DHT22;5161;48.174;11.756;2023-02-15T13:31:31;11.40;90.50
10233;DHT22;5161;48.174;11.756;2023-02-15T13:37:07;11.50;91.00
10233;DHT22;5161;48.174;11.756;2023-02-15T13:39:57;11.50;90.30
10233;DHT22;5161;48.174;11.756;2023-02-15T13:42:51;11.40;90.80
10233;DHT22;5161;48.174;11.756;2023-02-15T13:45:50;11.50;90.60
10233;DHT22;5161;48.174;11.756;2023-02-15T13:48:50;11.50;90.50
10233;DHT22;5161;48.174;11.756;2023-02-15T13:51:36;11.50;90.50
10233;DHT22;5161;48.174;11.756;2023-02-15T13:57:20;11.50;90.50
10233;DHT22;5161;48.174;11.756;2023-02-15T14:03:00;11.50;90.40
10233;DHT22;5161;48.174;11.756;2023-02-15T14:11:26;11.80;91.00
10233;DHT22;5161;48.174;11.756;2023-02-15T14:14:11;12.00;91.10
10233;DHT22;5161;48.174;11.756;2023-02-15T14:19:35;12.00;90.70
10233;DHT22;5161;48.174;11.756;2023-02-15T14:30:50;11.80;89.20
10233;DHT22;5161;48.174;11.756;2023-02-15T14:33:35;11.70;89.20
10233;DHT22;5161;48.174;11.756;2023-02-15T14:36:05;11.70;89.40
10233;DHT22;5161;48.174;11.756;2023-02-15T14:38:59;11.60;89.20
10233;DHT22;5161;48.174;11.756;2023-02-15T14:41:47;11.50;89.10
10233;DHT22;5161;48.174;11.756;2023-02-15T14:47:48;11.50;89.30
10233;DHT22;5161;48.174;11.756;2023-02-15T14:49:47;11.50;89.30
10233;DHT22;5161;48.174;11.756;2023-02-15T14:52:13;11.40;88.80
10233;DHT22;5161;48.174;11.756;2023-02-15T15:02:03;11.20;89.10
10233;DHT22;5161;48.174;11.756;2023-02-15T15:04:41;11.10;89.60
10233;DHT22;5161;48.174;11.756;2023-02-15T15:07:20;11.10;89.30
10233;DHT22;5161;48.174;11.756;2023-02-15T15:09:59;11.10;89.80
10233;DHT22;5161;48.174;11.756;2023-02-15T15:14:52;11.00;89.10
10233;DHT22;5161;48.174;11.756;2023-02-15T15:22:43;10.70;89.00
10233;DHT22;5161;48.174;11.756;2023-02-15T15:28:05;10.40;89.20
10233;DHT22;5161;48.174;11.756;2023-02-15T15:38:49;9.60;90.00
10233;DHT22;5161;48.174;11.756;2023-02-15T15:50:11;9.00;90.10
10233;DHT22;5161;48.174;11.756;2023-02-15T15:52:38;8.80;90.00
10233;DHT22;5161;48.174;11.756;2023-02-15T15:55:15;8.70;90.00
10233;DHT22;5161;48.174;11.756;2023-02-15T15:57:43;8.50;90.00
10233;DHT22;5161;48.174;11.756;2023-02-15T16:00:35;8.40;90.00
10233;DHT22;5161;48.174;11.756;2023-02-15T16:03:02;8.20;89.90
10233;DHT22;5161;48.174;11.756;2023-02-15T16:05:35;8.00;89.80
10233;DHT22;5161;48.174;11.756;2023-02-15T16:08:03;7.90;89.90
10233;DHT22;5161;48.174;11.756;2023-02-15T16:10:29;7.70;90.00
10233;DHT22;5161;48.174;11.756;2023-02-15T16:12:58;7.60;90.00
10233;DHT22;5161;48.174;11.756;2023-02-15T16:15:45;7.50;90.00
10233;DHT22;5161;48.174;11.756;2023-02-15T16:18:16;7.30;90.00
10233;DHT22;5161;48.174;11.756;2023-02-15T16:20:58;7.20;90.10
10233;DHT22;5161;48.174;11.756;2023-02-15T16:24:13;7.10;90.30
10233;DHT22;5161;48.174;11.756;2023-02-15T16:27:00;7.00;90.30
10233;DHT22;5161;48.174;11.756;2023-02-15T16:29:33;6.90;90.40
10233;DHT22;5161;48.174;11.756;2023-02-15T16:32:15;6.80;90.40
10233;DHT22;5161;48.174;11.756;2023-02-15T16:34:55;6.70;90.50
10233;DHT22;5161;48.174;11.756;2023-02-15T16:37:27;6.70;90.60
10233;DHT22;5161;48.174;11.756;2023-02-15T16:39:54;6.70;90.60
10233;DHT22;5161;48.174;11.756;2023-02-15T16:42:20;6.60;90.70
10233;DHT22;5161;48.174;11.756;2023-02-15T16:45:01;6.60;90.90
10233;DHT22;5161;48.174;11.756;2023-02-15T16:47:33;6.60;90.80
10233;DHT22;5161;48.174;11.756;2023-02-15T16:50:02;6.50;90.90
10233;DHT22;5161;48.174;11.756;2023-02-15T16:52:29;6.50;91.00
10233;DHT22;5161;48.174;11.756;2023-02-15T16:55:00;6.40;91.00
10233;DHT22;5161;48.174;11.756;2023-02-15T16:57:35;6.40;91.00
10233;DHT22;5161;48.174;11.756;2023-02-15T17:00:05;6.30;91.10
10233;DHT22;5161;48.174;11.756;2023-02-15T17:02:32;6.20;91.10
10233;DHT22;5161;48.174;11.756;2023-02-15T17:08:12;6.20;91.40
10233;DHT22;5161;48.174;11.756;2023-02-15T17:10:41;6.20;91.40
10233;DHT22;5161;48.174;11.756;2023-02-15T17:13:17;6.20;91.60
10233;DHT22;5161;48.174;11.756;2023-02-15T17:16:06;6.20;91.50
10233;DHT22;5161;48.174;11.756;2023-02-15T17:18:32;6.20;91.60
10233;DHT22;5161;48.174;11.756;2023-02-15T17:21:17;6.00;91.40
10233;DHT22;5161;48.174;11.756;2023-02-15T17:23:48;6.00;91.70
10233;DHT22;5161;48.174;11.756;2023-02-15T17:26:29;5.90;91.60
10233;DHT22;5161;48.174;11.756;2023-02-15T17:31:50;5.80;91.60
10233;DHT22;5161;48.174;11.756;2023-02-15T17:39:54;5.70;91.80
10233;DHT22;5161;48.174;11.756;2023-02-15T17:42:20;5.70;92.00
10233;DHT22;5161;48.174;11.756;2023-02-15T17:44:45;5.60;92.10
10233;DHT22;5161;48.174;11.756;2023-02-15T17:47:17;5.60;92.10
10233;DHT22;5161;48.174;11.756;2023-02-15T17:49:43;5.60;92.10
10233;DHT22;5161;48.174;11.756;2023-02-15T17:52:13;5.60;92.40
10233;DHT22;5161;48.174;11.756;2023-02-15T17:54:42;5.60;92.20
10233;DHT22;5161;48.174;11.756;2023-02-15T17:57:26;5.60;92.30
10233;DHT22;5161;48.174;11.756;2023-02-15T17:59:53;5.40;92.30
10233;DHT22;5161;48.174;11.756;2023-02-15T18:02:37;5.30;92.20
10233;DHT22;5161;48.174;11.756;2023-02-15T18:05:21;5.10;92.50
10233;DHT22;5161;48.174;11.756;2023-02-15T18:08:14;5.10;92.50
10233;DHT22;5161;48.174;11.756;2023-02-15T18:10:59;5.00;92.40
10233;DHT22;5161;48.174;11.756;2023-02-15T18:13:43;5.00;92.50
10233;DHT22;5161;48.174;11.756;2023-02-15T18:16:16;4.90;92.50
10233;DHT22;5161;48.174;11.756;2023-02-15T18:18:44;4.80;92.40
10233;DHT22;5161;48.174;11.756;2023-02-15T18:21:11;4.80;92.80
10233;DHT22;5161;48.174;11.756;2023-02-15T18:23:37;4.80;92.70
10233;DHT22;5161;48.174;11.756;2023-02-15T18:26:04;4.80;92.70
10233;DHT22;5161;48.174;11.756;2023-02-15T18:28:30;4.80;92.60
10233;DHT22;5161;48.174;11.756;2023-02-15T18:30:56;4.80;92.60
10233;DHT22;5161;48.174;11.756;2023-02-15T18:36:03;4.80;92.60
10233;DHT22;5161;48.174;11.756;2023-02-15T18:38:30;4.80;92.60